| time (UTC) | temp F | wind direction | speed MPH | gust MPH | rain 1hr in | rain 24hr in | rain mn in | humidity % | barometer mb |
| 20260510105033 | 50 | 102 | 0.0 | 0.0 | 0.00 | 0.00 | 0.00 | 99 | 1012.3 |
| 20260510104530 | 50 | 101 | 0.0 | 0.0 | 0.00 | 0.00 | 0.00 | 99 | 1012.0 |
| 20260510104026 | 49 | 103 | 0.0 | 0.0 | 0.00 | 0.00 | 0.00 | 99 | 1012.0 |
| 20260510103524 | 49 | 98 | 0.0 | 0.0 | 0.00 | 0.00 | 0.00 | 99 | 1012.1 |
| 20260510103020 | 49 | 98 | 0.0 | 0.0 | 0.00 | 0.00 | 0.00 | 99 | 1012.1 |
| 20260510102516 | 49 | 98 | 0.0 | 0.0 | 0.00 | 0.00 | 0.00 | 99 | 1012.0 |
| 20260510102012 | 48 | 98 | 0.0 | 0.0 | 0.00 | 0.00 | 0.00 | 99 | 1011.9 |
| 20260510101510 | 48 | 98 | 0.0 | 0.0 | 0.00 | 0.00 | 0.00 | 99 | 1011.7 |
| 20260510101008 | 49 | 98 | 0.0 | 0.0 | 0.00 | 0.00 | 0.00 | 99 | 1011.7 |
| 20260510100504 | 49 | 99 | 0.0 | 0.0 | 0.00 | 0.00 | 0.00 | 99 | 1011.5 |
| 20260510100001 | 49 | 100 | 0.0 | 0.0 | 0.00 | 0.00 | 0.00 | 99 | 1011.3 |
| 20260510095456 | 49 | 101 | 0.0 | 0.0 | 0.00 | 0.00 | 0.00 | 99 | 1011.5 |
| 20260510094955 | 49 | 101 | 0.0 | 0.0 | 0.00 | 0.00 | 0.00 | 99 | 1011.6 |
| 20260510094451 | 49 | 105 | 0.0 | 0.0 | 0.00 | 0.00 | 0.00 | 99 | 1011.7 |
| 20260510093947 | 49 | 96 | 0.0 | 0.0 | 0.00 | 0.00 | 0.00 | 99 | 1011.5 |
| 20260510093442 | 49 | 96 | 0.0 | 0.0 | 0.00 | 0.00 | 0.00 | 99 | 1011.8 |
| 20260510092939 | 49 | 96 | 0.0 | 0.0 | 0.00 | 0.00 | 0.00 | 99 | 1011.6 |
| 20260510092437 | 49 | 100 | 0.0 | 0.0 | 0.00 | 0.00 | 0.00 | 99 | 1011.7 |
| 20260510091936 | 49 | 98 | 0.0 | 0.0 | 0.00 | 0.00 | 0.00 | 99 | 1011.5 |
| 20260510091433 | 49 | 98 | 0.0 | 0.0 | 0.00 | 0.00 | 0.00 | 99 | 1011.6 |
| 20260510090930 | 49 | 98 | 0.0 | 0.0 | 0.00 | 0.00 | 0.00 | 99 | 1011.5 |
| 20260510090426 | 49 | 96 | 0.0 | 0.0 | 0.00 | 0.00 | 0.00 | 99 | 1011.7 |
| 20260510085922 | 49 | 98 | 0.0 | 0.0 | 0.00 | 0.00 | 0.00 | 99 | 1011.7 |
| 20260510085418 | 49 | 98 | 0.0 | 0.0 | 0.00 | 0.00 | 0.00 | 99 | 1011.7 |
| 20260510084913 | 49 | 98 | 0.0 | 0.0 | 0.00 | 0.00 | 0.00 | 99 | 1011.6 |
| 20260510084411 | 49 | 95 | 0.0 | 0.0 | 0.00 | 0.00 | 0.00 | 99 | 1011.8 |
| 20260510083907 | 49 | 96 | 0.0 | 0.0 | 0.00 | 0.00 | 0.00 | 99 | 1011.9 |
| 20260510083404 | 49 | 93 | 0.0 | 0.0 | 0.00 | 0.00 | 0.00 | 99 | 1012.0 |
| 20260510082859 | 49 | 94 | 0.0 | 0.0 | 0.00 | 0.00 | 0.00 | 99 | 1011.9 |
| 20260510082357 | 49 | 94 | 0.0 | 0.0 | 0.00 | 0.00 | 0.00 | 99 | 1012.1 |
| 20260510081855 | 49 | 99 | 0.0 | 0.0 | 0.00 | 0.00 | 0.00 | 99 | 1011.8 |
| 20260510081351 | 49 | 95 | 0.0 | 0.0 | 0.00 | 0.00 | 0.00 | 99 | 1011.8 |
| 20260510080849 | 49 | 95 | 0.0 | 0.0 | 0.00 | 0.00 | 0.00 | 99 | 1012.2 |
| 20260510080342 | 48 | 89 | 0.0 | 1.0 | 0.00 | 0.00 | 0.00 | 99 | 1012.2 |
| 20260510075840 | 48 | 87 | 1.0 | 1.0 | 0.00 | 0.00 | 0.00 | 99 | 1012.0 |
| 20260510075337 | 48 | 120 | 1.0 | 2.0 | 0.00 | 0.00 | 0.00 | 99 | 1012.0 |
| 20260510074834 | 48 | 96 | 1.0 | 2.0 | 0.00 | 0.00 | 0.00 | 99 | 1012.0 |
| 20260510074331 | 48 | 96 | 0.0 | 3.0 | 0.00 | 0.00 | 0.00 | 99 | 1012.0 |
| 20260510073827 | 48 | 89 | 0.0 | 0.0 | 0.00 | 0.00 | 0.00 | 99 | 1012.1 |
| 20260510073323 | 48 | 56 | 1.0 | 2.0 | 0.00 | 0.00 | 0.00 | 99 | 1011.5 |
| 20260510072819 | 48 | 354 | 4.0 | 6.0 | 0.00 | 0.00 | 0.00 | 99 | 1012.0 |
| 20260510072316 | 48 | 93 | 0.0 | 0.0 | 0.00 | 0.00 | 0.00 | 99 | 1011.0 |
| 20260510071812 | 48 | 91 | 0.0 | 0.0 | 0.00 | 0.00 | 0.00 | 99 | 1011.0 |
| 20260510071303 | 48 | 93 | 0.0 | 0.0 | 0.00 | 0.00 | 0.00 | 99 | 1011.0 |
| 20260510070802 | 48 | 93 | 0.0 | 0.0 | 0.00 | 0.00 | 0.00 | 99 | 1011.0 |
| 20260510070258 | 48 | 93 | 0.0 | 0.0 | 0.00 | 0.00 | 0.00 | 99 | 1011.1 |
| 20260510065758 | 48 | 93 | 0.0 | 0.0 | 0.00 | 0.00 | 0.00 | 99 | 1011.1 |
| 20260510065255 | 48 | 93 | 0.0 | 0.0 | 0.00 | 0.00 | 0.00 | 99 | 1011.1 |
| 20260510064752 | 48 | 93 | 0.0 | 0.0 | 0.00 | 0.00 | 0.00 | 99 | 1011.6 |
| 20260510064250 | 48 | 93 | 0.0 | 0.0 | 0.00 | 0.00 | 0.00 | 99 | 1011.1 |
| 20260510063745 | 48 | 93 | 0.0 | 0.0 | 0.00 | 0.00 | 0.00 | 99 | 1011.5 |
| 20260510063242 | 48 | 93 | 0.0 | 0.0 | 0.00 | 0.00 | 0.00 | 99 | 1011.3 |
| 20260510062738 | 48 | 93 | 0.0 | 0.0 | 0.00 | 0.00 | 0.00 | 99 | 1011.3 |
| 20260510062234 | 48 | 93 | 0.0 | 0.0 | 0.00 | 0.00 | 0.00 | 99 | 1011.5 |
| 20260510061730 | 48 | 93 | 0.0 | 0.0 | 0.00 | 0.00 | 0.00 | 99 | 1011.7 |
| 20260510061227 | 48 | 93 | 0.0 | 0.0 | 0.00 | 0.00 | 0.00 | 99 | 1011.8 |
| 20260510060723 | 48 | 93 | 0.0 | 0.0 | 0.00 | 0.00 | 0.00 | 99 | 1011.8 |
| 20260510060220 | 47 | 93 | 0.0 | 0.0 | 0.00 | 0.00 | 0.00 | 99 | 1011.7 |
| 20260510055717 | 48 | 93 | 0.0 | 0.0 | 0.00 | 0.00 | 0.00 | 99 | 1011.5 |
| 20260510055216 | 47 | 93 | 0.0 | 0.0 | 0.00 | 0.00 | 0.00 | 99 | 1011.5 |
| 20260510054715 | 48 | 93 | 0.0 | 0.0 | 0.00 | 0.00 | 0.00 | 99 | 1011.5 |
| 20260510054211 | 48 | 93 | 0.0 | 0.0 | 0.00 | 0.00 | 0.00 | 99 | 1011.3 |
| 20260510053706 | 48 | 93 | 0.0 | 0.0 | 0.00 | 0.00 | 0.00 | 99 | 1011.3 |
| 20260510053203 | 48 | 93 | 0.0 | 0.0 | 0.00 | 0.00 | 0.00 | 99 | 1011.3 |
| 20260510052658 | 48 | 93 | 0.0 | 0.0 | 0.00 | 0.00 | 0.00 | 99 | 1011.3 |
| 20260510052154 | 48 | 94 | 0.0 | 0.0 | 0.00 | 0.00 | 0.00 | 99 | 1011.2 |
| 20260510051650 | 48 | 94 | 0.0 | 0.0 | 0.00 | 0.00 | 0.00 | 99 | 1011.2 |
| 20260510051147 | 48 | 94 | 0.0 | 0.0 | 0.00 | 0.00 | 0.00 | 99 | 1011.2 |
| 20260510050644 | 48 | 93 | 0.0 | 0.0 | 0.00 | 0.00 | 0.00 | 99 | 1011.3 |
| 20260510050141 | 48 | 94 | 0.0 | 0.0 | 0.00 | 0.00 | 0.00 | 99 | 1011.3 |
| 20260510045638 | 48 | 93 | 0.0 | 0.0 | 0.00 | 0.00 | 0.00 | 99 | 1011.1 |
| 20260510045135 | 48 | 93 | 0.0 | 0.0 | 0.00 | 0.00 | 0.00 | 99 | 1011.2 |
| 20260510044631 | 48 | 96 | 0.0 | 0.0 | 0.00 | 0.00 | 0.00 | 99 | 1011.2 |
| 20260510044128 | 48 | 96 | 0.0 | 0.0 | 0.00 | 0.00 | 0.00 | 99 | 1011.3 |
| 20260510043624 | 48 | 94 | 0.0 | 0.0 | 0.00 | 0.00 | 0.00 | 99 | 1011.5 |
| 20260510043121 | 48 | 94 | 0.0 | 0.0 | 0.00 | 0.00 | 0.00 | 99 | 1011.3 |
| 20260510042619 | 49 | 94 | 0.0 | 0.0 | 0.00 | 0.00 | 0.00 | 99 | 1011.5 |
| 20260510042114 | 49 | 94 | 0.0 | 0.0 | 0.00 | 0.00 | 0.00 | 99 | 1011.5 |
| 20260510041612 | 49 | 93 | 0.0 | 0.0 | 0.00 | 0.00 | 0.00 | 99 | 1011.3 |
| 20260510041109 | 49 | 96 | 0.0 | 0.0 | 0.00 | 0.00 | 0.00 | 99 | 1011.2 |
| 20260510040606 | 49 | 96 | 0.0 | 0.0 | 0.00 | 0.00 | 0.00 | 99 | 1011.5 |
| 20260510035558 | 50 | 96 | 0.0 | 0.0 | 0.00 | 0.33 | 0.33 | 99 | 1011.5 |
| 20260510035057 | 49 | 96 | 0.0 | 0.0 | 0.00 | 0.33 | 0.33 | 99 | 1011.3 |
| 20260510034556 | 49 | 96 | 0.0 | 0.0 | 0.00 | 0.33 | 0.33 | 99 | 1011.6 |
| 20260510034052 | 49 | 96 | 0.0 | 0.0 | 0.00 | 0.33 | 0.33 | 99 | 1011.3 |
| 20260510033548 | 49 | 94 | 0.0 | 0.0 | 0.00 | 0.33 | 0.33 | 99 | 1011.2 |
| 20260510033046 | 49 | 94 | 0.0 | 0.0 | 0.00 | 0.33 | 0.33 | 99 | 1011.1 |
| 20260510032543 | 49 | 94 | 0.0 | 0.0 | 0.00 | 0.33 | 0.33 | 99 | 1011.1 |
| 20260510032038 | 49 | 94 | 0.0 | 0.0 | 0.00 | 0.33 | 0.33 | 99 | 1011.0 |
| 20260510031533 | 49 | 94 | 0.0 | 0.0 | 0.00 | 0.33 | 0.33 | 99 | 1011.2 |
| 20260510031029 | 49 | 96 | 0.0 | 0.0 | 0.00 | 0.33 | 0.33 | 99 | 1011.2 |
| 20260510030525 | 49 | 96 | 0.0 | 0.0 | 0.00 | 0.33 | 0.33 | 99 | 1011.2 |
| 20260510030023 | 49 | 96 | 0.0 | 0.0 | 0.00 | 0.33 | 0.33 | 99 | 1011.2 |
| 20260510025519 | 49 | 96 | 0.0 | 0.0 | 0.00 | 0.33 | 0.33 | 99 | 1011.0 |
| 20260510025017 | 49 | 96 | 0.0 | 0.0 | 0.00 | 0.33 | 0.33 | 99 | 1010.9 |
| 20260510024514 | 49 | 95 | 0.0 | 0.0 | 0.00 | 0.33 | 0.33 | 99 | 1011.0 |
| 20260510024009 | 49 | 95 | 0.0 | 0.0 | 0.00 | 0.33 | 0.33 | 99 | 1011.1 |
| 20260510023500 | 49 | 95 | 0.0 | 0.0 | 0.00 | 0.33 | 0.33 | 99 | 1011.0 |
| 20260510022958 | 49 | 95 | 0.0 | 0.0 | 0.00 | 0.33 | 0.33 | 99 | 1010.9 |
| 20260510022457 | 50 | 94 | 0.0 | 0.0 | 0.00 | 0.33 | 0.33 | 99 | 1010.9 |
| 20260510021956 | 50 | 94 | 0.0 | 0.0 | 0.00 | 0.33 | 0.33 | 99 | 1011.0 |
| 20260510021454 | 50 | 94 | 0.0 | 0.0 | 0.00 | 0.33 | 0.33 | 99 | 1011.0 |
| 20260510020950 | 50 | 104 | 0.0 | 0.0 | 0.00 | 0.33 | 0.33 | 99 | 1010.9 |
| 20260510020450 | 50 | 104 | 0.0 | 0.0 | 0.00 | 0.33 | 0.33 | 99 | 1011.2 |
| 20260510015946 | 51 | 103 | 0.0 | 0.0 | 0.00 | 0.33 | 0.33 | 99 | 1011.1 |
| 20260510015437 | 51 | 104 | 0.0 | 0.0 | 0.00 | 0.33 | 0.33 | 99 | 1011.0 |
| 20260510014932 | 51 | 103 | 0.0 | 0.0 | 0.00 | 0.33 | 0.33 | 99 | 1011.1 |
| 20260510014430 | 51 | 103 | 0.0 | 0.0 | 0.00 | 0.33 | 0.33 | 99 | 1011.2 |
| 20260510013926 | 51 | 103 | 0.0 | 0.0 | 0.00 | 0.33 | 0.33 | 99 | 1011.2 |
| 20260510013421 | 51 | 103 | 0.0 | 0.0 | 0.00 | 0.33 | 0.33 | 99 | 1011.2 |
| 20260510012917 | 51 | 103 | 0.0 | 0.0 | 0.00 | 0.33 | 0.33 | 99 | 1011.2 |
| 20260510012412 | 51 | 103 | 0.0 | 0.0 | 0.00 | 0.33 | 0.33 | 99 | 1011.0 |
| 20260510011907 | 51 | 103 | 0.0 | 0.0 | 0.00 | 0.33 | 0.33 | 99 | 1010.9 |
| 20260510011402 | 51 | 103 | 0.0 | 0.0 | 0.00 | 0.33 | 0.33 | 99 | 1010.9 |
| 20260510010858 | 51 | 103 | 0.0 | 0.0 | 0.00 | 0.33 | 0.33 | 99 | 1011.0 |
| 20260510010356 | 51 | 104 | 0.0 | 0.0 | 0.00 | 0.33 | 0.33 | 99 | 1010.8 |
| 20260510005852 | 51 | 101 | 0.0 | 0.0 | 0.00 | 0.33 | 0.33 | 99 | 1010.9 |
| 20260510005349 | 51 | 101 | 0.0 | 0.0 | 0.00 | 0.33 | 0.33 | 99 | 1010.8 |
| 20260510004846 | 52 | 101 | 0.0 | 0.0 | 0.00 | 0.33 | 0.33 | 99 | 1010.7 |
| 20260510004344 | 52 | 100 | 0.0 | 0.0 | 0.00 | 0.33 | 0.33 | 99 | 1010.6 |
| 20260510003842 | 52 | 105 | 0.0 | 0.0 | 0.00 | 0.33 | 0.33 | 99 | 1010.4 |
| 20260510003338 | 52 | 97 | 0.0 | 0.0 | 0.00 | 0.33 | 0.33 | 99 | 1010.4 |
| 20260510002837 | 52 | 104 | 0.0 | 0.0 | 0.00 | 0.33 | 0.33 | 99 | 1010.5 |
| 20260510002334 | 52 | 99 | 0.0 | 0.0 | 0.00 | 0.33 | 0.33 | 99 | 1010.5 |
| 20260510001831 | 52 | 99 | 0.0 | 0.0 | 0.00 | 0.33 | 0.33 | 99 | 1010.4 |
| 20260510001329 | 52 | 99 | 0.0 | 0.0 | 0.00 | 0.33 | 0.33 | 99 | 1010.3 |
| 20260510000825 | 52 | 99 | 0.0 | 0.0 | 0.00 | 0.33 | 0.33 | 99 | 1010.2 |
| 20260510000322 | 52 | 99 | 0.0 | 0.0 | 0.00 | 0.33 | 0.33 | 99 | 1010.1 |
| 20260509235819 | 53 | 102 | 0.0 | 0.0 | 0.00 | 0.33 | 0.33 | 99 | 1010.2 |
| 20260509235315 | 53 | 105 | 0.0 | 0.0 | 0.00 | 0.33 | 0.33 | 99 | 1010.3 |
| 20260509234811 | 53 | 104 | 0.0 | 0.0 | 0.00 | 0.33 | 0.33 | 99 | 1010.4 |
| 20260509234308 | 53 | 105 | 0.0 | 0.0 | 0.00 | 0.33 | 0.33 | 99 | 1010.3 |
| 20260509233807 | 53 | 103 | 0.0 | 0.0 | 0.00 | 0.33 | 0.33 | 98 | 1010.3 |
| 20260509233304 | 53 | 101 | 0.0 | 0.0 | 0.00 | 0.33 | 0.33 | 98 | 1010.3 |
| 20260509232759 | 53 | 101 | 0.0 | 0.0 | 0.00 | 0.33 | 0.33 | 98 | 1010.2 |
| 20260509232257 | 53 | 100 | 0.0 | 0.0 | 0.00 | 0.33 | 0.33 | 98 | 1010.0 |
| 20260509231753 | 53 | 108 | 0.0 | 0.0 | 0.00 | 0.33 | 0.33 | 98 | 1010.1 |
| 20260509231250 | 53 | 94 | 0.0 | 0.0 | 0.00 | 0.33 | 0.33 | 98 | 1010.3 |
| 20260509230748 | 53 | 97 | 0.0 | 0.0 | 0.00 | 0.33 | 0.33 | 97 | 1010.0 |
| 20260509230245 | 53 | 97 | 0.0 | 0.0 | 0.00 | 0.33 | 0.33 | 97 | 1010.0 |
| 20260509225740 | 53 | 98 | 0.0 | 0.0 | 0.00 | 0.33 | 0.33 | 98 | 1010.1 |
| 20260509225236 | 53 | 95 | 0.0 | 0.0 | 0.00 | 0.33 | 0.33 | 98 | 1009.8 |
| 20260509224732 | 54 | 96 | 0.0 | 0.0 | 0.00 | 0.33 | 0.33 | 98 | 1010.2 |
| 20260509224230 | 54 | 98 | 0.0 | 0.0 | 0.00 | 0.33 | 0.33 | 98 | 1010.1 |
| 20260509223726 | 54 | 95 | 0.0 | 0.0 | 0.00 | 0.33 | 0.33 | 98 | 1010.0 |
| 20260509223223 | 54 | 99 | 0.0 | 0.0 | 0.00 | 0.33 | 0.33 | 97 | 1010.2 |
| 20260509222720 | 54 | 101 | 0.0 | 0.0 | 0.00 | 0.33 | 0.33 | 97 | 1010.1 |
| 20260509222215 | 54 | 100 | 0.0 | 0.0 | 0.00 | 0.33 | 0.33 | 97 | 1010.2 |
| 20260509221711 | 54 | 98 | 0.0 | 0.0 | 0.00 | 0.33 | 0.33 | 98 | 1010.1 |
| 20260509221207 | 54 | 98 | 0.0 | 0.0 | 0.00 | 0.33 | 0.33 | 98 | 1010.1 |
| 20260509220703 | 54 | 99 | 0.0 | 0.0 | 0.00 | 0.33 | 0.33 | 97 | 1010.2 |
| 20260509220200 | 55 | 99 | 0.0 | 0.0 | 0.00 | 0.33 | 0.33 | 96 | 1010.0 |
| 20260509215656 | 54 | 91 | 0.0 | 0.0 | 0.00 | 0.33 | 0.33 | 95 | 1010.1 |
| 20260509215153 | 55 | 96 | 0.0 | 0.0 | 0.00 | 0.33 | 0.33 | 97 | 1010.1 |
| 20260509214650 | 55 | 100 | 0.0 | 0.0 | 0.00 | 0.33 | 0.33 | 97 | 1010.1 |
| 20260509214146 | 55 | 110 | 0.0 | 1.0 | 0.00 | 0.33 | 0.33 | 96 | 1010.1 |
| 20260509213644 | 54 | 103 | 0.0 | 0.0 | 0.00 | 0.33 | 0.33 | 95 | 1010.2 |
| 20260509213139 | 53 | 99 | 0.0 | 0.0 | 0.00 | 0.33 | 0.33 | 94 | 1010.2 |
| 20260509212637 | 53 | 100 | 1.0 | 1.0 | 0.00 | 0.33 | 0.33 | 94 | 1010.2 |
| 20260509212133 | 53 | 131 | 1.0 | 2.0 | 0.00 | 0.33 | 0.33 | 94 | 1010.3 |
| 20260509211629 | 54 | 118 | 0.0 | 1.0 | 0.00 | 0.33 | 0.33 | 95 | 1010.6 |
| 20260509211126 | 54 | 101 | 0.0 | 0.0 | 0.00 | 0.33 | 0.33 | 95 | 1010.5 |
| 20260509210623 | 54 | 127 | 1.0 | 1.0 | 0.00 | 0.33 | 0.33 | 94 | 1010.5 |
| 20260509210120 | 54 | 95 | 0.0 | 0.0 | 0.00 | 0.33 | 0.33 | 96 | 1010.4 |
| 20260509205614 | 54 | 94 | 1.0 | 1.0 | 0.00 | 0.33 | 0.33 | 96 | 1010.3 |
| 20260509205109 | 54 | 93 | 0.0 | 1.0 | 0.00 | 0.33 | 0.33 | 97 | 1010.4 |
| 20260509204606 | 53 | 100 | 0.0 | 0.0 | 0.00 | 0.33 | 0.33 | 98 | 1010.5 |
| 20260509204102 | 53 | 93 | 0.0 | 0.0 | 0.00 | 0.33 | 0.33 | 98 | 1010.4 |
| 20260509203552 | 53 | 93 | 0.0 | 0.0 | 0.00 | 0.33 | 0.33 | 98 | 1010.4 |
| 20260509203050 | 53 | 100 | 0.0 | 0.0 | 0.05 | 0.33 | 0.33 | 99 | 1010.4 |
| 20260509202544 | 53 | 102 | 0.0 | 0.0 | 0.05 | 0.33 | 0.33 | 99 | 1010.5 |
| 20260509202040 | 53 | 97 | 0.0 | 0.0 | 0.00 | 0.32 | 0.32 | 98 | 1010.2 |
| 20260509201535 | 52 | 97 | 0.0 | 0.0 | 0.00 | 0.32 | 0.32 | 98 | 1010.4 |
| 20260509201033 | 52 | 96 | 0.0 | 0.0 | 0.00 | 0.32 | 0.32 | 98 | 1010.3 |
| 20260509200527 | 52 | 96 | 0.0 | 0.0 | 0.00 | 0.32 | 0.32 | 98 | 1010.5 |
| 20260509200024 | 52 | 97 | 0.0 | 0.0 | 0.00 | 0.32 | 0.32 | 98 | 1010.5 |
| 20260509195519 | 52 | 98 | 0.0 | 1.0 | 0.07 | 0.32 | 0.32 | 98 | 1010.7 |
| 20260509195014 | 52 | 93 | 0.0 | 0.0 | 0.07 | 0.32 | 0.32 | 98 | 1010.7 |
| 20260509194509 | 51 | 85 | 0.0 | 1.0 | 0.00 | 0.31 | 0.31 | 98 | 1010.7 |
| 20260509194007 | 51 | 95 | 0.0 | 0.0 | 0.05 | 0.31 | 0.31 | 98 | 1010.8 |
| 20260509193506 | 51 | 94 | 0.0 | 0.0 | 0.05 | 0.31 | 0.31 | 98 | 1011.1 |
| 20260509193003 | 52 | 95 | 0.0 | 0.0 | 0.07 | 0.30 | 0.30 | 98 | 1011.6 |
| 20260509192459 | 51 | 97 | 0.0 | 0.0 | 0.05 | 0.29 | 0.29 | 98 | 1011.6 |
| 20260509191954 | 51 | 96 | 1.0 | 1.0 | 0.07 | 0.28 | 0.28 | 98 | 1011.7 |
| 20260509191449 | 51 | 105 | 0.0 | 0.0 | 0.12 | 0.28 | 0.28 | 98 | 1011.8 |
| 20260509190945 | 52 | 93 | 0.0 | 2.0 | 0.05 | 0.27 | 0.27 | 98 | 1011.8 |
| 20260509190443 | 52 | 94 | 0.0 | 0.0 | 0.00 | 0.26 | 0.26 | 98 | 1011.7 |
| 20260509185941 | 52 | 102 | 0.0 | 1.0 | 0.07 | 0.26 | 0.26 | 98 | 1011.6 |
| 20260509185432 | 52 | 115 | 1.0 | 2.0 | 0.14 | 0.26 | 0.26 | 98 | 1012.0 |
| 20260509184929 | 52 | 86 | 1.0 | 1.0 | 0.07 | 0.25 | 0.25 | 98 | 1011.7 |
| 20260509184427 | 52 | 101 | 0.0 | 0.0 | 0.05 | 0.24 | 0.24 | 98 | 1012.0 |
| 20260509183923 | 52 | 99 | 0.0 | 0.0 | 0.07 | 0.23 | 0.23 | 97 | 1012.0 |
| 20260509183422 | 52 | 105 | 0.0 | 0.0 | 0.12 | 0.23 | 0.23 | 97 | 1011.9 |
| 20260509182919 | 52 | 121 | 0.0 | 0.0 | 0.12 | 0.22 | 0.22 | 97 | 1011.8 |
| 20260509182416 | 52 | 91 | 0.0 | 0.0 | 0.07 | 0.21 | 0.21 | 98 | 1011.9 |
| 20260509181914 | 52 | 94 | 0.0 | 1.0 | 0.05 | 0.20 | 0.20 | 97 | 1011.7 |
| 20260509181411 | 52 | 114 | 0.0 | 0.0 | 0.05 | 0.20 | 0.20 | 97 | 1011.7 |
| 20260509180908 | 52 | 83 | 0.0 | 0.0 | 0.07 | 0.19 | 0.19 | 97 | 1011.7 |
| 20260509180403 | 52 | 95 | 0.0 | 2.0 | 0.05 | 0.18 | 0.18 | 98 | 1011.8 |
| 20260509175901 | 52 | 101 | 0.0 | 0.0 | 0.05 | 0.18 | 0.18 | 98 | 1011.8 |
| 20260509175357 | 53 | 130 | 0.0 | 0.0 | 0.07 | 0.17 | 0.17 | 98 | 1011.6 |
| 20260509174853 | 53 | 94 | 0.0 | 0.0 | 0.12 | 0.17 | 0.17 | 98 | 1011.7 |
| 20260509174344 | 53 | 106 | 0.0 | 0.0 | 0.12 | 0.15 | 0.15 | 97 | 1011.6 |
| 20260509173840 | 53 | 95 | 0.0 | 0.0 | 0.19 | 0.14 | 0.14 | 97 | 1011.7 |
| 20260509173335 | 53 | 102 | 0.0 | 0.0 | 0.12 | 0.12 | 0.12 | 97 | 1012.0 |
| 20260509172832 | 53 | 107 | 0.0 | 0.0 | 0.12 | 0.11 | 0.11 | 97 | 1012.2 |
| 20260509172329 | 53 | 105 | 0.0 | 0.0 | 0.05 | 0.09 | 0.09 | 96 | 1012.2 |
| 20260509171825 | 54 | 105 | 0.0 | 0.0 | 0.07 | 0.08 | 0.08 | 96 | 1012.2 |
| 20260509171320 | 54 | 99 | 0.0 | 0.0 | 0.12 | 0.08 | 0.08 | 96 | 1012.0 |
| 20260509170817 | 54 | 189 | 1.0 | 1.0 | 0.05 | 0.07 | 0.07 | 95 | 1012.2 |
| 20260509170313 | 54 | 102 | 0.0 | 0.0 | 0.00 | 0.06 | 0.06 | 95 | 1011.8 |
| 20260509165812 | 54 | 99 | 0.0 | 1.0 | 0.07 | 0.06 | 0.06 | 95 | 1011.9 |
| 20260509165301 | 55 | 100 | 0.0 | 0.0 | 0.07 | 0.06 | 0.06 | 95 | 1012.0 |
| 20260509164757 | 55 | 115 | 0.0 | 0.0 | 0.00 | 0.05 | 0.05 | 95 | 1012.0 |
| 20260509164254 | 55 | 99 | 0.0 | 0.0 | 0.05 | 0.05 | 0.05 | 95 | 1011.8 |
| 20260509163750 | 54 | 95 | 0.0 | 1.0 | 0.00 | 0.04 | 0.04 | 94 | 1011.8 |
| 20260509163247 | 54 | 100 | 0.0 | 0.0 | 0.00 | 0.04 | 0.04 | 95 | 1012.1 |
| 20260509162745 | 54 | 88 | 0.0 | 1.0 | 0.07 | 0.04 | 0.04 | 95 | 1011.9 |
| 20260509162239 | 54 | 96 | 0.0 | 0.0 | 0.00 | 0.03 | 0.03 | 95 | 1012.1 |
| 20260509161736 | 54 | 99 | 0.0 | 0.0 | 0.00 | 0.03 | 0.03 | 94 | 1012.2 |
| 20260509161231 | 54 | 116 | 0.0 | 1.0 | 0.00 | 0.03 | 0.03 | 95 | 1012.3 |
| 20260509160726 | 54 | 104 | 0.0 | 1.0 | 0.00 | 0.03 | 0.03 | 95 | 1012.2 |
| 20260509160223 | 54 | 98 | 0.0 | 0.0 | 0.00 | 0.03 | 0.03 | 95 | 1012.1 |
| 20260509155718 | 54 | 94 | 0.0 | 0.0 | 0.00 | 0.03 | 0.03 | 95 | 1012.1 |
| 20260509155215 | 53 | 105 | 0.0 | 3.0 | 0.05 | 0.03 | 0.03 | 94 | 1012.3 |
| 20260509154711 | 54 | 106 | 0.0 | 1.0 | 0.05 | 0.03 | 0.03 | 94 | 1012.4 |
| 20260509154208 | 54 | 129 | 0.0 | 1.0 | 0.00 | 0.02 | 0.02 | 95 | 1012.3 |
| 20260509153705 | 54 | 93 | 1.0 | 1.0 | 0.00 | 0.02 | 0.02 | 95 | 1012.1 |
| 20260509153202 | 54 | 93 | 0.0 | 0.0 | 0.00 | 0.02 | 0.02 | 96 | 1012.0 |
| 20260509152658 | 54 | 105 | 0.0 | 1.0 | 0.00 | 0.02 | 0.02 | 95 | 1012.2 |
| 20260509152155 | 53 | 93 | 0.0 | 0.0 | 0.00 | 0.02 | 0.02 | 95 | 1012.3 |
| 20260509151651 | 53 | 96 | 0.0 | 0.0 | 0.00 | 0.02 | 0.02 | 94 | 1012.3 |
| 20260509151148 | 53 | 102 | 0.0 | 0.0 | 0.00 | 0.02 | 0.02 | 93 | 1012.1 |
| 20260509150647 | 53 | 91 | 0.0 | 0.0 | 0.07 | 0.02 | 0.02 | 93 | 1012.1 |
| 20260509150144 | 53 | 91 | 0.0 | 0.0 | 0.07 | 0.02 | 0.02 | 93 | 1012.2 |
| 20260509145640 | 53 | 88 | 0.0 | 1.0 | 0.00 | 0.01 | 0.01 | 92 | 1012.4 |
| 20260509145136 | 53 | 99 | 0.0 | 0.0 | 0.00 | 0.01 | 0.01 | 92 | 1012.3 |
| 20260509144633 | 53 | 99 | 0.0 | 0.0 | 0.00 | 0.01 | 0.01 | 92 | 1012.2 |
| 20260509144130 | 53 | 93 | 0.0 | 0.0 | 0.07 | 0.01 | 0.01 | 91 | 1012.3 |
| 20260509143627 | 53 | 101 | 0.0 | 2.0 | 0.00 | 0.00 | 0.00 | 90 | 1012.5 |
| 20260509143124 | 54 | 85 | 0.0 | 1.0 | 0.00 | 0.00 | 0.00 | 90 | 1012.4 |
| 20260509142619 | 54 | 96 | 0.0 | 0.0 | 0.00 | 0.00 | 0.00 | 90 | 1012.3 |
| 20260509142116 | 54 | 107 | 0.0 | 0.0 | 0.00 | 0.00 | 0.00 | 90 | 1012.2 |
| 20260509141612 | 53 | 96 | 0.0 | 0.0 | 0.00 | 0.00 | 0.00 | 89 | 1012.2 |
| 20260509141109 | 53 | 101 | 0.0 | 0.0 | 0.00 | 0.00 | 0.00 | 89 | 1012.1 |
| 20260509140606 | 53 | 99 | 0.0 | 0.0 | 0.00 | 0.00 | 0.00 | 89 | 1012.0 |
| 20260509140104 | 53 | 103 | 0.0 | 0.0 | 0.00 | 0.00 | 0.00 | 88 | 1012.0 |
| 20260509135600 | 53 | 105 | 0.0 | 0.0 | 0.00 | 0.00 | 0.00 | 88 | 1012.1 |
| 20260509135058 | 53 | 97 | 0.0 | 1.0 | 0.00 | 0.00 | 0.00 | 87 | 1012.0 |
| 20260509134555 | 53 | 100 | 0.0 | 0.0 | 0.00 | 0.00 | 0.00 | 88 | 1011.9 |
| 20260509134052 | 53 | 99 | 0.0 | 0.0 | 0.00 | 0.00 | 0.00 | 87 | 1012.0 |
| 20260509133549 | 53 | 98 | 0.0 | 0.0 | 0.00 | 0.00 | 0.00 | 88 | 1012.0 |
| 20260509133047 | 53 | 104 | 0.0 | 0.0 | 0.00 | 0.00 | 0.00 | 87 | 1011.8 |
| 20260509132545 | 53 | 99 | 0.0 | 0.0 | 0.00 | 0.00 | 0.00 | 88 | 1012.0 |
| 20260509132043 | 53 | 105 | 0.0 | 0.0 | 0.00 | 0.00 | 0.00 | 86 | 1012.2 |
| 20260509131539 | 53 | 101 | 0.0 | 0.0 | 0.00 | 0.00 | 0.00 | 87 | 1012.1 |
| 20260509131037 | 53 | 98 | 0.0 | 0.0 | 0.00 | 0.00 | 0.00 | 85 | 1012.1 |
| 20260509130532 | 52 | 103 | 0.0 | 0.0 | 0.00 | 0.00 | 0.00 | 86 | 1012.0 |
| 20260509130029 | 52 | 105 | 0.0 | 0.0 | 0.00 | 0.00 | 0.00 | 87 | 1012.2 |
| 20260509125525 | 52 | 101 | 0.0 | 0.0 | 0.00 | 0.00 | 0.00 | 85 | 1012.2 |
| 20260509125022 | 52 | 101 | 0.0 | 0.0 | 0.00 | 0.00 | 0.00 | 85 | 1012.3 |
| 20260509124518 | 52 | 101 | 0.0 | 0.0 | 0.00 | 0.00 | 0.00 | 85 | 1012.2 |
| 20260509124016 | 52 | 102 | 0.0 | 0.0 | 0.00 | 0.00 | 0.00 | 85 | 1012.2 |
| 20260509123514 | 52 | 101 | 0.0 | 0.0 | 0.00 | 0.00 | 0.00 | 85 | 1012.2 |
| 20260509123009 | 52 | 101 | 0.0 | 0.0 | 0.00 | 0.00 | 0.00 | 84 | 1012.2 |
| 20260509122506 | 52 | 107 | 0.0 | 0.0 | 0.00 | 0.00 | 0.00 | 85 | 1012.3 |
| 20260509122003 | 51 | 99 | 0.0 | 0.0 | 0.00 | 0.00 | 0.00 | 82 | 1012.2 |
| 20260509121459 | 51 | 106 | 0.0 | 0.0 | 0.00 | 0.00 | 0.00 | 86 | 1012.4 |
| 20260509120957 | 51 | 104 | 0.0 | 0.0 | 0.00 | 0.00 | 0.00 | 85 | 1012.2 |
| 20260509120455 | 51 | 106 | 0.0 | 1.0 | 0.00 | 0.00 | 0.00 | 83 | 1012.3 |
| 20260509115953 | 51 | 103 | 0.0 | 0.0 | 0.00 | 0.00 | 0.00 | 83 | 1012.2 |
| 20260509115450 | 51 | 106 | 0.0 | 0.0 | 0.00 | 0.00 | 0.00 | 85 | 1012.1 |
| 20260509114947 | 51 | 98 | 0.0 | 0.0 | 0.00 | 0.00 | 0.00 | 85 | 1012.1 |
| 20260509114446 | 51 | 102 | 0.0 | 0.0 | 0.00 | 0.00 | 0.00 | 84 | 1012.1 |
| 20260509113945 | 51 | 102 | 0.0 | 0.0 | 0.00 | 0.00 | 0.00 | 85 | 1012.4 |
| 20260509113442 | 51 | 102 | 0.0 | 0.0 | 0.00 | 0.00 | 0.00 | 85 | 1012.3 |
| 20260509112938 | 51 | 103 | 0.0 | 0.0 | 0.00 | 0.00 | 0.00 | 85 | 1012.2 |
| 20260509112436 | 51 | 102 | 0.0 | 0.0 | 0.00 | 0.00 | 0.00 | 83 | 1012.1 |
| 20260509111932 | 51 | 102 | 0.0 | 0.0 | 0.00 | 0.00 | 0.00 | 84 | 1011.8 |
| 20260509111430 | 51 | 107 | 0.0 | 0.0 | 0.00 | 0.00 | 0.00 | 83 | 1012.0 |
| 20260509110927 | 51 | 101 | 0.0 | 0.0 | 0.00 | 0.00 | 0.00 | 85 | 1012.0 |
| 20260509110423 | 51 | 101 | 0.0 | 0.0 | 0.00 | 0.00 | 0.00 | 84 | 1012.0 |
| 20260509105921 | 50 | 98 | 0.0 | 0.0 | 0.00 | 0.00 | 0.00 | 83 | 1011.7 |
| 20260509105420 | 50 | 98 | 0.0 | 0.0 | 0.00 | 0.00 | 0.00 | 84 | 1011.6 |